Terminal Aerodrome Forecast
Issued by NWS

Home | Current Version | Previous Version | Text Only | Print | Product List | Glossary On
Versions: 1 2 3 4 5 6 7 8 9 10 11 12
000
FTUS42 KTBW 012334
TAFRSW
TAF
KRSW 012334Z 0200/0224 11005KT P6SM VCTS SCT050CB BKN150
     FM020300 06003KT P6SM BKN150 BKN250
     FM020600 VRB03KT P6SM FEW150 SCT250
     FM021500 14006KT P6SM SCT030 SCT250
     FM021800 VRB04KT P6SM VCTS SCT050CB BKN250=

USA.gov is the U.S. government's official web portal to all federal, state and local government web resources and services.